Huvudsida
METAR-TAF:

METAR-TAF

Flygplatser :

Edmundo Carvajal Airport

Macas, Ecuador

latitud: 02-17-57-S, longitud: 078-07-15-W, höjd: 1052 m

Aktuellt väderrapport

Denna rapport gjordes för 10 timmar och 11 minuter sedan, klockan 23:00 UTC
Vind 4 kt från väst/nordväst
Temperatur 21°C
Fuktighet 78%
Tryck 1015 hPa
Sikt 10 km eller mer
Få moln på en höjd av 3300 ft

METAR: SEMC 062300Z 30004KT 9999 FEW033 21/17 Q1015 RMK A2999

Tid: 04:11 (09:11 UTC)


TAF: saknas

Aktuella väderrapporter och prognoser från 4000 flygplatser (METAR- och TAF-rapporter).

De tillgängliga stationerna syns som gula och röda prickar på kartan.

För musen över prickarna för att se namnen på stationerna.

Klicka sedan för att få väderrapporter och prognoser.

För att ändra kartan: Klicka på de gröna knapparna med ett svart kors på för att zooma in; den gröna knappen med ett streck på för att zooma ut; eller på de gröna pilarna för angränsande kartor.


METAR-TAF: